Waltersburg, Pennsylvania
Current Conditions -  °F | °C
As of 9:28 AM on Friday 28 Nov 2014 (Local Time) from KMGW Reporting Station
Light Snow Light Snow  
Wind Chill: 19°   Ceiling: 2600
Heat Index: 26°   Visibility: 1mi
Dew Point: 20°   Wind: 6mph
Humidity: 78%   Direction: 270°W
Pressure: 30.32"   Gusts: NA
Location:  39.98°N, 79.76°W
Report Text: KMGW 281428Z 27005KT 1SM -SN SCT017 OVC026 M03/M07 A3032 RMK AO2 P0000 T10331067
Loading
Personal Weather Stations






























Interactive Weather Map New forecast layout! Learn more

10-Day Weather Forecast

Advertisements
Track Severe Weather on mobile